sensor_id;sensor_type;location;lat;lon;timestamp;pressure;altitude;pressure_sealevel;temperature;humidity
13581;BME280;6861;46.170;7.222;2023-06-19T00:01:57;95875.53;;;24.38;39.40
13581;BME280;6861;46.170;7.222;2023-06-19T00:04:25;95884.50;;;24.26;39.71
13581;BME280;6861;46.170;7.222;2023-06-19T00:06:54;95889.69;;;24.19;39.67
13581;BME280;6861;46.170;7.222;2023-06-19T00:09:22;95886.25;;;24.18;39.72
13581;BME280;6861;46.170;7.222;2023-06-19T00:11:51;95884.69;;;24.17;40.05
13581;BME280;6861;46.170;7.222;2023-06-19T00:14:20;95888.50;;;24.16;40.25
13581;BME280;6861;46.170;7.222;2023-06-19T00:16:48;95893.44;;;24.14;39.91
13581;BME280;6861;46.170;7.222;2023-06-19T00:19:17;95883.56;;;24.18;40.23
13581;BME280;6861;46.170;7.222;2023-06-19T00:21:45;95891.19;;;24.16;39.84
13581;BME280;6861;46.170;7.222;2023-06-19T00:24:13;95893.44;;;24.14;40.24
13581;BME280;6861;46.170;7.222;2023-06-19T00:26:42;95901.03;;;24.12;40.40
13581;BME280;6861;46.170;7.222;2023-06-19T00:29:10;95899.13;;;24.13;40.22
13581;BME280;6861;46.170;7.222;2023-06-19T00:31:40;95886.53;;;24.13;39.82
13581;BME280;6861;46.170;7.222;2023-06-19T00:34:08;95893.00;;;24.12;40.27
13581;BME280;6861;46.170;7.222;2023-06-19T00:36:36;95885.19;;;24.04;40.12
13581;BME280;6861;46.170;7.222;2023-06-19T00:39:07;95897.72;;;24.00;40.61
13581;BME280;6861;46.170;7.222;2023-06-19T00:41:36;95893.84;;;23.97;40.53
13581;BME280;6861;46.170;7.222;2023-06-19T00:44:04;95910.44;;;23.87;40.75
13581;BME280;6861;46.170;7.222;2023-06-19T00:46:32;95905.66;;;23.77;40.71
13581;BME280;6861;46.170;7.222;2023-06-19T00:49:04;95913.94;;;23.72;41.28
13581;BME280;6861;46.170;7.222;2023-06-19T00:51:32;95909.38;;;23.72;41.24
13581;BME280;6861;46.170;7.222;2023-06-19T00:54:01;95919.44;;;23.79;40.74
13581;BME280;6861;46.170;7.222;2023-06-19T00:56:29;95916.84;;;23.82;40.89
13581;BME280;6861;46.170;7.222;2023-06-19T00:58:58;95915.03;;;23.86;41.21
13581;BME280;6861;46.170;7.222;2023-06-19T01:01:26;95911.16;;;23.84;40.77
13581;BME280;6861;46.170;7.222;2023-06-19T01:03:54;95919.53;;;23.82;40.74
13581;BME280;6861;46.170;7.222;2023-06-19T01:06:28;95925.56;;;23.79;40.88
13581;BME280;6861;46.170;7.222;2023-06-19T01:09:08;95925.50;;;23.76;40.76
13581;BME280;6861;46.170;7.222;2023-06-19T01:11:42;95930.47;;;23.77;40.94
13581;BME280;6861;46.170;7.222;2023-06-19T01:14:15;95928.59;;;23.78;41.35
13581;BME280;6861;46.170;7.222;2023-06-19T01:16:45;95918.31;;;23.80;40.68
13581;BME280;6861;46.170;7.222;2023-06-19T01:19:17;95929.44;;;23.82;40.88
13581;BME280;6861;46.170;7.222;2023-06-19T01:21:48;95929.16;;;23.87;40.68
13581;BME280;6861;46.170;7.222;2023-06-19T01:24:18;95936.56;;;23.94;40.80
13581;BME280;6861;46.170;7.222;2023-06-19T01:26:46;95925.09;;;23.93;40.42
13581;BME280;6861;46.170;7.222;2023-06-19T01:29:15;95927.34;;;23.91;40.34
13581;BME280;6861;46.170;7.222;2023-06-19T01:31:51;95920.44;;;23.90;40.32
13581;BME280;6861;46.170;7.222;2023-06-19T01:34:23;95925.09;;;23.93;40.55
13581;BME280;6861;46.170;7.222;2023-06-19T01:36:54;95928.19;;;23.95;40.13
13581;BME280;6861;46.170;7.222;2023-06-19T01:39:25;95930.16;;;23.98;40.57
13581;BME280;6861;46.170;7.222;2023-06-19T01:41:55;95929.09;;;24.03;40.32
13581;BME280;6861;46.170;7.222;2023-06-19T01:44:23;95929.16;;;24.06;39.93
13581;BME280;6861;46.170;7.222;2023-06-19T01:46:52;95932.34;;;24.12;39.67
13581;BME280;6861;46.170;7.222;2023-06-19T01:49:20;95925.09;;;24.12;39.72
13581;BME280;6861;46.170;7.222;2023-06-19T01:51:48;95917.41;;;24.11;39.80
13581;BME280;6861;46.170;7.222;2023-06-19T01:54:17;95920.09;;;24.11;39.85
13581;BME280;6861;46.170;7.222;2023-06-19T01:56:46;95920.81;;;24.08;40.08
13581;BME280;6861;46.170;7.222;2023-06-19T01:59:14;95929.16;;;24.06;40.12
13581;BME280;6861;46.170;7.222;2023-06-19T02:01:42;95927.69;;;24.09;39.94
13581;BME280;6861;46.170;7.222;2023-06-19T02:04:10;95936.22;;;24.14;40.02
13581;BME280;6861;46.170;7.222;2023-06-19T02:06:39;95926.34;;;24.18;40.24
13581;BME280;6861;46.170;7.222;2023-06-19T02:09:07;95930.16;;;24.17;40.89
13581;BME280;6861;46.170;7.222;2023-06-19T02:11:35;95937.75;;;24.15;41.20
13581;BME280;6861;46.170;7.222;2023-06-19T02:14:04;95942.97;;;24.08;41.66
13581;BME280;6861;46.170;7.222;2023-06-19T02:16:33;95950.13;;;24.04;41.92
13581;BME280;6861;46.170;7.222;2023-06-19T02:19:01;95959.13;;;23.96;42.04
13581;BME280;6861;46.170;7.222;2023-06-19T02:21:29;95957.44;;;23.88;42.41
13581;BME280;6861;46.170;7.222;2023-06-19T02:23:57;95974.44;;;23.80;42.29
13581;BME280;6861;46.170;7.222;2023-06-19T02:26:25;95966.69;;;23.75;42.68
13581;BME280;6861;46.170;7.222;2023-06-19T02:28:56;95962.03;;;23.72;42.75
13581;BME280;6861;46.170;7.222;2023-06-19T02:31:25;95955.16;;;23.71;42.48
13581;BME280;6861;46.170;7.222;2023-06-19T02:33:53;95949.31;;;23.65;42.44
13581;BME280;6861;46.170;7.222;2023-06-19T02:36:21;95952.75;;;23.66;42.34
13581;BME280;6861;46.170;7.222;2023-06-19T02:38:49;95945.00;;;23.61;42.38
13581;BME280;6861;46.170;7.222;2023-06-19T02:41:18;95947.06;;;23.51;42.55
13581;BME280;6861;46.170;7.222;2023-06-19T02:43:46;95957.59;;;23.44;42.48
13581;BME280;6861;46.170;7.222;2023-06-19T02:46:14;95953.66;;;23.38;42.88
13581;BME280;6861;46.170;7.222;2023-06-19T02:48:44;95954.34;;;23.35;42.41
13581;BME280;6861;46.170;7.222;2023-06-19T02:51:12;95958.22;;;23.38;42.62
13581;BME280;6861;46.170;7.222;2023-06-19T02:53:40;95956.72;;;23.40;42.23
13581;BME280;6861;46.170;7.222;2023-06-19T02:56:08;95947.59;;;23.41;42.46
13581;BME280;6861;46.170;7.222;2023-06-19T02:58:36;95954.50;;;23.42;41.88
13581;BME280;6861;46.170;7.222;2023-06-19T03:01:05;95953.03;;;23.45;41.84
13581;BME280;6861;46.170;7.222;2023-06-19T03:03:35;95952.25;;;23.44;42.18
13581;BME280;6861;46.170;7.222;2023-06-19T03:06:07;95962.94;;;23.44;42.66
13581;BME280;6861;46.170;7.222;2023-06-19T03:08:35;95969.41;;;23.43;42.91
13581;BME280;6861;46.170;7.222;2023-06-19T03:11:03;95972.34;;;23.38;43.94
13581;BME280;6861;46.170;7.222;2023-06-19T03:13:36;95981.75;;;23.32;43.81
13581;BME280;6861;46.170;7.222;2023-06-19T03:16:11;95983.81;;;23.23;44.05
13581;BME280;6861;46.170;7.222;2023-06-19T03:18:39;95982.28;;;23.22;43.61
13581;BME280;6861;46.170;7.222;2023-06-19T03:21:08;95988.03;;;23.24;43.32
13581;BME280;6861;46.170;7.222;2023-06-19T03:23:36;95990.78;;;23.28;43.31
13581;BME280;6861;46.170;7.222;2023-06-19T03:26:05;95999.16;;;23.26;43.35
13581;BME280;6861;46.170;7.222;2023-06-19T03:28:33;95997.44;;;23.18;43.89
13581;BME280;6861;46.170;7.222;2023-06-19T03:31:01;95991.47;;;23.09;43.56
13581;BME280;6861;46.170;7.222;2023-06-19T03:33:29;95985.44;;;22.96;44.21
13581;BME280;6861;46.170;7.222;2023-06-19T03:35:57;95992.06;;;22.86;44.52
13581;BME280;6861;46.170;7.222;2023-06-19T03:38:27;95988.88;;;22.81;44.52
13581;BME280;6861;46.170;7.222;2023-06-19T03:40:55;95982.75;;;22.80;44.20
13581;BME280;6861;46.170;7.222;2023-06-19T03:43:23;95988.19;;;22.84;44.58
13581;BME280;6861;46.170;7.222;2023-06-19T03:45:51;95995.59;;;22.91;44.15
13581;BME280;6861;46.170;7.222;2023-06-19T03:48:19;95994.91;;;22.94;43.76
13581;BME280;6861;46.170;7.222;2023-06-19T03:50:47;95993.78;;;22.95;43.97
13581;BME280;6861;46.170;7.222;2023-06-19T03:53:15;95997.25;;;22.95;44.44
13581;BME280;6861;46.170;7.222;2023-06-19T03:55:45;95995.34;;;22.96;44.16
13581;BME280;6861;46.170;7.222;2023-06-19T03:58:13;96001.47;;;22.96;44.55
13581;BME280;6861;46.170;7.222;2023-06-19T04:00:42;95997.84;;;22.88;44.94
13581;BME280;6861;46.170;7.222;2023-06-19T04:03:10;95997.75;;;22.85;44.98
13581;BME280;6861;46.170;7.222;2023-06-19T04:05:39;95992.75;;;22.83;45.28
13581;BME280;6861;46.170;7.222;2023-06-19T04:08:09;96000.41;;;22.85;44.83
13581;BME280;6861;46.170;7.222;2023-06-19T04:10:37;96002.72;;;22.86;45.32
13581;BME280;6861;46.170;7.222;2023-06-19T04:13:06;96006.53;;;22.85;45.23
13581;BME280;6861;46.170;7.222;2023-06-19T04:15:34;96010.22;;;22.81;45.82
13581;BME280;6861;46.170;7.222;2023-06-19T04:18:04;96010.09;;;22.77;45.38
13581;BME280;6861;46.170;7.222;2023-06-19T04:20:32;96012.31;;;22.75;45.84
13581;BME280;6861;46.170;7.222;2023-06-19T04:23:00;96014.47;;;22.70;46.34
13581;BME280;6861;46.170;7.222;2023-06-19T04:25:28;96018.59;;;22.67;46.16
13581;BME280;6861;46.170;7.222;2023-06-19T04:27:56;96013.50;;;22.62;46.02
13581;BME280;6861;46.170;7.222;2023-06-19T04:30:26;96008.25;;;22.50;46.67
13581;BME280;6861;46.170;7.222;2023-06-19T04:32:54;96003.94;;;22.45;46.37
13581;BME280;6861;46.170;7.222;2023-06-19T04:35:22;96009.25;;;22.45;46.25
13581;BME280;6861;46.170;7.222;2023-06-19T04:37:52;96004.81;;;22.49;46.30
13581;BME280;6861;46.170;7.222;2023-06-19T04:40:21;95996.63;;;22.58;45.96
13581;BME280;6861;46.170;7.222;2023-06-19T04:42:50;95998.03;;;22.68;45.89
13581;BME280;6861;46.170;7.222;2023-06-19T04:45:20;95999.31;;;22.74;45.54
13581;BME280;6861;46.170;7.222;2023-06-19T04:47:50;95994.09;;;22.77;46.13
13581;BME280;6861;46.170;7.222;2023-06-19T04:50:20;96004.75;;;22.77;46.17
13581;BME280;6861;46.170;7.222;2023-06-19T04:52:49;96003.00;;;22.69;45.97
13581;BME280;6861;46.170;7.222;2023-06-19T04:55:18;96009.72;;;22.63;45.90
13581;BME280;6861;46.170;7.222;2023-06-19T04:57:46;96007.72;;;22.60;46.21
13581;BME280;6861;46.170;7.222;2023-06-19T05:00:15;96004.28;;;22.60;46.55
13581;BME280;6861;46.170;7.222;2023-06-19T05:02:46;96008.75;;;22.55;46.96
13581;BME280;6861;46.170;7.222;2023-06-19T05:05:16;96004.13;;;22.52;47.51
13581;BME280;6861;46.170;7.222;2023-06-19T05:07:49;96003.25;;;22.48;47.46
13581;BME280;6861;46.170;7.222;2023-06-19T05:10:17;96006.84;;;22.40;46.92
13581;BME280;6861;46.170;7.222;2023-06-19T05:12:46;96017.28;;;22.33;47.31
13581;BME280;6861;46.170;7.222;2023-06-19T05:15:14;96021.06;;;22.32;47.55
13581;BME280;6861;46.170;7.222;2023-06-19T05:17:42;96011.63;;;22.35;46.80
13581;BME280;6861;46.170;7.222;2023-06-19T05:20:13;96015.06;;;22.35;46.94
13581;BME280;6861;46.170;7.222;2023-06-19T05:22:43;96008.97;;;22.35;46.88
13581;BME280;6861;46.170;7.222;2023-06-19T05:25:11;95996.75;;;22.34;46.53
13581;BME280;6861;46.170;7.222;2023-06-19T05:27:40;96004.06;;;22.37;46.41
13581;BME280;6861;46.170;7.222;2023-06-19T05:30:08;96006.94;;;22.44;46.97
13581;BME280;6861;46.170;7.222;2023-06-19T05:32:37;96008.47;;;22.45;46.66
13581;BME280;6861;46.170;7.222;2023-06-19T05:35:06;96004.25;;;22.44;46.57
13581;BME280;6861;46.170;7.222;2023-06-19T05:37:34;95996.25;;;22.44;46.94
13581;BME280;6861;46.170;7.222;2023-06-19T05:40:04;95992.91;;;22.47;46.36
13581;BME280;6861;46.170;7.222;2023-06-19T05:42:33;95994.13;;;22.49;46.61
13581;BME280;6861;46.170;7.222;2023-06-19T05:45:01;95986.72;;;22.58;46.18
13581;BME280;6861;46.170;7.222;2023-06-19T05:47:29;95981.50;;;22.62;46.17
13581;BME280;6861;46.170;7.222;2023-06-19T05:49:57;95980.22;;;22.72;45.88
13581;BME280;6861;46.170;7.222;2023-06-19T05:52:25;95986.63;;;22.83;46.62
13581;BME280;6861;46.170;7.222;2023-06-19T05:54:54;95999.13;;;22.95;45.89
13581;BME280;6861;46.170;7.222;2023-06-19T05:57:23;95988.63;;;23.02;46.09
13581;BME280;6861;46.170;7.222;2023-06-19T05:59:51;95988.91;;;23.12;45.38
13581;BME280;6861;46.170;7.222;2023-06-19T06:02:20;95986.41;;;23.35;45.21
13581;BME280;6861;46.170;7.222;2023-06-19T06:04:48;95990.59;;;23.68;44.22
13581;BME280;6861;46.170;7.222;2023-06-19T06:07:16;95988.53;;;23.96;43.98
13581;BME280;6861;46.170;7.222;2023-06-19T06:09:44;95991.81;;;24.25;43.54
13581;BME280;6861;46.170;7.222;2023-06-19T06:12:12;95998.84;;;24.52;42.58
13581;BME280;6861;46.170;7.222;2023-06-19T06:14:42;95990.28;;;24.85;41.47
13581;BME280;6861;46.170;7.222;2023-06-19T06:17:10;95990.69;;;25.06;41.45
13581;BME280;6861;46.170;7.222;2023-06-19T06:19:38;95980.38;;;25.08;41.11
13581;BME280;6861;46.170;7.222;2023-06-19T06:22:06;95992.94;;;25.04;41.16
13581;BME280;6861;46.170;7.222;2023-06-19T06:24:34;95995.13;;;24.99;41.08
13581;BME280;6861;46.170;7.222;2023-06-19T06:27:03;95987.66;;;25.08;40.97
13581;BME280;6861;46.170;7.222;2023-06-19T06:29:31;95990.94;;;25.24;40.71
13581;BME280;6861;46.170;7.222;2023-06-19T06:32:05;95987.41;;;25.43;40.54
13581;BME280;6861;46.170;7.222;2023-06-19T06:34:34;95980.78;;;25.60;40.78
13581;BME280;6861;46.170;7.222;2023-06-19T06:37:03;95981.00;;;25.74;40.70
13581;BME280;6861;46.170;7.222;2023-06-19T06:39:32;95985.91;;;25.95;40.39
13581;BME280;6861;46.170;7.222;2023-06-19T06:42:01;95984.69;;;26.22;40.44
13581;BME280;6861;46.170;7.222;2023-06-19T06:44:29;95981.94;;;26.45;39.48
13581;BME280;6861;46.170;7.222;2023-06-19T06:46:57;95992.00;;;26.55;39.34
13581;BME280;6861;46.170;7.222;2023-06-19T06:49:27;95993.72;;;26.70;39.28
13581;BME280;6861;46.170;7.222;2023-06-19T06:51:55;95988.53;;;26.92;39.07
13581;BME280;6861;46.170;7.222;2023-06-19T06:54:24;95992.91;;;27.07;38.62
13581;BME280;6861;46.170;7.222;2023-06-19T06:56:52;95993.09;;;27.28;38.76
13581;BME280;6861;46.170;7.222;2023-06-19T06:59:23;95987.47;;;27.44;37.66
13581;BME280;6861;46.170;7.222;2023-06-19T07:01:52;95995.66;;;27.58;37.81
13581;BME280;6861;46.170;7.222;2023-06-19T07:04:20;95990.38;;;27.72;36.73
13581;BME280;6861;46.170;7.222;2023-06-19T07:06:50;95984.69;;;27.88;37.30
13581;BME280;6861;46.170;7.222;2023-06-19T07:09:18;95982.47;;;28.01;36.25
13581;BME280;6861;46.170;7.222;2023-06-19T07:11:48;95983.31;;;28.16;36.17
13581;BME280;6861;46.170;7.222;2023-06-19T07:14:19;95977.22;;;28.26;36.10
13581;BME280;6861;46.170;7.222;2023-06-19T07:16:48;95981.03;;;28.21;35.39
13581;BME280;6861;46.170;7.222;2023-06-19T07:19:17;95981.78;;;28.18;35.17
13581;BME280;6861;46.170;7.222;2023-06-19T07:21:45;95978.75;;;28.23;35.18
13581;BME280;6861;46.170;7.222;2023-06-19T07:24:14;95981.88;;;28.36;35.90
13581;BME280;6861;46.170;7.222;2023-06-19T07:26:43;95972.69;;;28.48;35.35
13581;BME280;6861;46.170;7.222;2023-06-19T07:29:11;95969.66;;;28.56;35.52
13581;BME280;6861;46.170;7.222;2023-06-19T07:31:39;95965.78;;;28.64;34.99
13581;BME280;6861;46.170;7.222;2023-06-19T07:34:09;95966.94;;;28.70;34.77
13581;BME280;6861;46.170;7.222;2023-06-19T07:36:37;95960.41;;;28.68;35.02
13581;BME280;6861;46.170;7.222;2023-06-19T07:39:06;95956.56;;;28.65;35.02
13581;BME280;6861;46.170;7.222;2023-06-19T07:41:35;95956.94;;;28.67;34.47
13581;BME280;6861;46.170;7.222;2023-06-19T07:44:04;95945.03;;;28.76;35.48
13581;BME280;6861;46.170;7.222;2023-06-19T07:46:32;95944.69;;;28.88;34.83
13581;BME280;6861;46.170;7.222;2023-06-19T07:49:00;95943.56;;;29.07;34.98
13581;BME280;6861;46.170;7.222;2023-06-19T07:51:28;95939.72;;;29.18;34.14
13581;BME280;6861;46.170;7.222;2023-06-19T07:53:56;95941.25;;;29.26;33.56
13581;BME280;6861;46.170;7.222;2023-06-19T07:56:25;95937.38;;;29.34;33.25
13581;BME280;6861;46.170;7.222;2023-06-19T07:58:54;95930.44;;;29.55;33.08
13581;BME280;6861;46.170;7.222;2023-06-19T08:01:22;95926.56;;;29.70;32.95
13581;BME280;6861;46.170;7.222;2023-06-19T08:03:50;95930.00;;;29.78;32.67
13581;BME280;6861;46.170;7.222;2023-06-19T08:06:19;95923.47;;;29.72;32.71
13581;BME280;6861;46.170;7.222;2023-06-19T08:08:47;95916.53;;;29.74;32.60
13581;BME280;6861;46.170;7.222;2023-06-19T08:11:15;95914.19;;;29.83;33.04
13581;BME280;6861;46.170;7.222;2023-06-19T08:13:44;95904.88;;;29.98;33.05
13581;BME280;6861;46.170;7.222;2023-06-19T08:16:13;95893.31;;;29.98;32.76
13581;BME280;6861;46.170;7.222;2023-06-19T08:18:41;95898.34;;;30.03;32.82
13581;BME280;6861;46.170;7.222;2023-06-19T08:21:10;95891.41;;;30.02;32.32
13581;BME280;6861;46.170;7.222;2023-06-19T08:23:38;95886.00;;;29.95;31.43
13581;BME280;6861;46.170;7.222;2023-06-19T08:26:10;95887.97;;;29.87;31.57
13581;BME280;6861;46.170;7.222;2023-06-19T08:28:38;95880.25;;;29.86;31.80
13581;BME280;6861;46.170;7.222;2023-06-19T08:31:08;95881.38;;;29.95;32.35
13581;BME280;6861;46.170;7.222;2023-06-19T08:33:38;95881.00;;;30.00;32.28
13581;BME280;6861;46.170;7.222;2023-06-19T08:36:06;95885.53;;;30.18;32.96
13581;BME280;6861;46.170;7.222;2023-06-19T08:38:34;95886.53;;;30.42;32.32
13581;BME280;6861;46.170;7.222;2023-06-19T08:41:03;95878.38;;;30.52;31.30
13581;BME280;6861;46.170;7.222;2023-06-19T08:43:31;95882.19;;;30.65;30.94
13581;BME280;6861;46.170;7.222;2023-06-19T08:46:07;95881.00;;;30.67;30.56
13581;BME280;6861;46.170;7.222;2023-06-19T08:48:38;95876.81;;;30.62;30.76
13581;BME280;6861;46.170;7.222;2023-06-19T08:51:07;95869.91;;;30.50;31.19
13581;BME280;6861;46.170;7.222;2023-06-19T08:53:43;95868.00;;;30.44;31.65
13581;BME280;6861;46.170;7.222;2023-06-19T08:56:11;95859.16;;;30.43;32.01
13581;BME280;6861;46.170;7.222;2023-06-19T08:58:39;95849.84;;;30.51;31.56
13581;BME280;6861;46.170;7.222;2023-06-19T09:01:07;95845.19;;;30.59;31.22
13581;BME280;6861;46.170;7.222;2023-06-19T09:03:36;95838.97;;;30.62;30.90
13581;BME280;6861;46.170;7.222;2023-06-19T09:06:06;95843.09;;;30.81;31.37
13581;BME280;6861;46.170;7.222;2023-06-19T09:08:34;95837.13;;;31.00;30.37
13581;BME280;6861;46.170;7.222;2023-06-19T09:11:04;95835.50;;;31.13;30.27
13581;BME280;6861;46.170;7.222;2023-06-19T09:13:36;95830.66;;;31.32;29.11
13581;BME280;6861;46.170;7.222;2023-06-19T09:16:07;95819.63;;;31.49;28.98
13581;BME280;6861;46.170;7.222;2023-06-19T09:18:43;95828.31;;;31.71;28.99
13581;BME280;6861;46.170;7.222;2023-06-19T09:21:16;95819.09;;;31.96;28.54
13581;BME280;6861;46.170;7.222;2023-06-19T09:23:45;95819.91;;;32.19;28.56
13581;BME280;6861;46.170;7.222;2023-06-19T09:26:14;95818.50;;;32.38;28.67
13581;BME280;6861;46.170;7.222;2023-06-19T09:28:44;95814.47;;;32.50;28.54
13581;BME280;6861;46.170;7.222;2023-06-19T09:31:13;95814.13;;;32.71;27.51
13581;BME280;6861;46.170;7.222;2023-06-19T09:33:41;95798.53;;;32.79;27.58
13581;BME280;6861;46.170;7.222;2023-06-19T09:36:10;95803.13;;;32.82;26.61
13581;BME280;6861;46.170;7.222;2023-06-19T09:38:40;95801.97;;;32.83;27.03
13581;BME280;6861;46.170;7.222;2023-06-19T09:41:08;95810.22;;;32.96;27.24
13581;BME280;6861;46.170;7.222;2023-06-19T09:43:38;95793.28;;;33.11;27.27
13581;BME280;6861;46.170;7.222;2023-06-19T09:46:06;95793.16;;;33.18;27.39
13581;BME280;6861;46.170;7.222;2023-06-19T09:48:35;95799.94;;;33.30;27.86
13581;BME280;6861;46.170;7.222;2023-06-19T09:51:10;95796.81;;;33.32;27.29
13581;BME280;6861;46.170;7.222;2023-06-19T09:53:43;95791.47;;;33.05;26.55
13581;BME280;6861;46.170;7.222;2023-06-19T09:56:12;95784.03;;;32.66;26.88
13581;BME280;6861;46.170;7.222;2023-06-19T09:58:41;95775.88;;;32.42;26.93
13581;BME280;6861;46.170;7.222;2023-06-19T10:01:11;95789.88;;;32.37;27.63
13581;BME280;6861;46.170;7.222;2023-06-19T10:03:40;95783.34;;;32.35;28.21
13581;BME280;6861;46.170;7.222;2023-06-19T10:06:13;95784.94;;;32.32;28.12
13581;BME280;6861;46.170;7.222;2023-06-19T10:08:44;95779.97;;;32.27;27.88
13581;BME280;6861;46.170;7.222;2023-06-19T10:11:13;95787.34;;;32.26;28.37
13581;BME280;6861;46.170;7.222;2023-06-19T10:13:42;95776.50;;;32.26;28.51
13581;BME280;6861;46.170;7.222;2023-06-19T10:16:19;95772.28;;;32.22;29.24
13581;BME280;6861;46.170;7.222;2023-06-19T10:18:47;95783.09;;;32.25;28.95
13581;BME280;6861;46.170;7.222;2023-06-19T10:21:16;95786.22;;;32.24;28.98
13581;BME280;6861;46.170;7.222;2023-06-19T10:23:53;95773.34;;;32.05;28.75
13581;BME280;6861;46.170;7.222;2023-06-19T10:26:30;95771.19;;;31.92;28.44
13581;BME280;6861;46.170;7.222;2023-06-19T10:29:00;95782.78;;;31.93;28.58
13581;BME280;6861;46.170;7.222;2023-06-19T10:31:29;95778.09;;;31.97;29.20
13581;BME280;6861;46.170;7.222;2023-06-19T10:33:57;95767.97;;;32.01;29.36
13581;BME280;6861;46.170;7.222;2023-06-19T10:36:25;95774.88;;;32.06;30.58
13581;BME280;6861;46.170;7.222;2023-06-19T10:38:55;95778.63;;;32.12;30.00
13581;BME280;6861;46.170;7.222;2023-06-19T10:41:24;95776.38;;;32.07;30.38
13581;BME280;6861;46.170;7.222;2023-06-19T10:43:54;95777.91;;;32.08;30.53
13581;BME280;6861;46.170;7.222;2023-06-19T10:46:24;95777.22;;;32.04;29.65
13581;BME280;6861;46.170;7.222;2023-06-19T10:48:54;95776.50;;;32.00;30.28
13581;BME280;6861;46.170;7.222;2023-06-19T10:51:28;95782.03;;;31.92;30.31
13581;BME280;6861;46.170;7.222;2023-06-19T10:53:58;95776.81;;;31.78;30.15
13581;BME280;6861;46.170;7.222;2023-06-19T10:56:26;95787.78;;;31.64;31.04
13581;BME280;6861;46.170;7.222;2023-06-19T10:58:58;95784.09;;;31.47;30.94
13581;BME280;6861;46.170;7.222;2023-06-19T11:01:34;95791.97;;;31.35;30.89
13581;BME280;6861;46.170;7.222;2023-06-19T11:04:04;95791.78;;;31.18;31.61
13581;BME280;6861;46.170;7.222;2023-06-19T11:06:33;95790.75;;;31.05;32.28
13581;BME280;6861;46.170;7.222;2023-06-19T11:09:06;95787.00;;;30.92;32.48
13581;BME280;6861;46.170;7.222;2023-06-19T11:11:36;95790.56;;;30.82;33.12
13581;BME280;6861;46.170;7.222;2023-06-19T11:14:04;95786.44;;;30.70;32.95
13581;BME280;6861;46.170;7.222;2023-06-19T11:16:33;95784.59;;;30.56;33.65
13581;BME280;6861;46.170;7.222;2023-06-19T11:19:01;95793.13;;;30.51;33.49
13581;BME280;6861;46.170;7.222;2023-06-19T11:21:30;95795.09;;;30.44;34.12
13581;BME280;6861;46.170;7.222;2023-06-19T11:23:59;95800.56;;;30.37;34.71
13581;BME280;6861;46.170;7.222;2023-06-19T11:26:29;95789.84;;;30.29;34.75
13581;BME280;6861;46.170;7.222;2023-06-19T11:28:58;95794.88;;;30.24;34.73
13581;BME280;6861;46.170;7.222;2023-06-19T11:31:27;95789.13;;;30.22;35.09
13581;BME280;6861;46.170;7.222;2023-06-19T11:33:58;95800.34;;;30.17;35.53
13581;BME280;6861;46.170;7.222;2023-06-19T11:36:29;95800.34;;;30.13;35.56
13581;BME280;6861;46.170;7.222;2023-06-19T11:38:57;95800.00;;;30.08;35.50
13581;BME280;6861;46.170;7.222;2023-06-19T11:41:26;95809.28;;;29.99;35.51
13581;BME280;6861;46.170;7.222;2023-06-19T11:44:00;95802.00;;;29.89;35.84
13581;BME280;6861;46.170;7.222;2023-06-19T11:46:29;95802.44;;;29.81;36.01
13581;BME280;6861;46.170;7.222;2023-06-19T11:49:07;95792.13;;;29.61;36.86
13581;BME280;6861;46.170;7.222;2023-06-19T11:51:36;95794.09;;;29.47;37.24
13581;BME280;6861;46.170;7.222;2023-06-19T11:54:06;95788.75;;;29.43;37.20
13581;BME280;6861;46.170;7.222;2023-06-19T11:56:35;95795.66;;;29.41;37.65
13581;BME280;6861;46.170;7.222;2023-06-19T11:59:05;95791.03;;;29.45;37.21
13581;BME280;6861;46.170;7.222;2023-06-19T12:01:34;95776.41;;;29.46;37.30
13581;BME280;6861;46.170;7.222;2023-06-19T12:04:03;95778.34;;;29.45;37.34
13581;BME280;6861;46.170;7.222;2023-06-19T12:06:32;95766.41;;;29.35;37.33
13581;BME280;6861;46.170;7.222;2023-06-19T12:09:02;95754.88;;;29.24;37.05
13581;BME280;6861;46.170;7.222;2023-06-19T12:11:31;95758.75;;;29.16;37.38
13581;BME280;6861;46.170;7.222;2023-06-19T12:13:59;95748.75;;;29.13;36.60
13581;BME280;6861;46.170;7.222;2023-06-19T12:16:29;95746.84;;;29.07;36.76
13581;BME280;6861;46.170;7.222;2023-06-19T12:18:57;95751.09;;;29.04;36.79
13581;BME280;6861;46.170;7.222;2023-06-19T12:21:26;95751.09;;;29.04;37.67
13581;BME280;6861;46.170;7.222;2023-06-19T12:24:05;95739.13;;;29.19;37.51
13581;BME280;6861;46.170;7.222;2023-06-19T12:26:34;95718.66;;;29.36;37.21
13581;BME280;6861;46.170;7.222;2023-06-19T12:29:04;95727.41;;;29.58;37.53
13581;BME280;6861;46.170;7.222;2023-06-19T12:31:35;95732.25;;;29.84;37.23
13581;BME280;6861;46.170;7.222;2023-06-19T12:34:04;95727.13;;;30.08;36.83
13581;BME280;6861;46.170;7.222;2023-06-19T12:36:53;95733.91;;;30.30;36.92
13581;BME280;6861;46.170;7.222;2023-06-19T12:39:21;95729.50;;;30.47;36.12
13581;BME280;6861;46.170;7.222;2023-06-19T12:41:49;95728.72;;;30.46;35.30
13581;BME280;6861;46.170;7.222;2023-06-19T12:44:17;95730.63;;;30.49;34.67
13581;BME280;6861;46.170;7.222;2023-06-19T12:46:47;95715.94;;;30.54;34.76
13581;BME280;6861;46.170;7.222;2023-06-19T12:49:15;95719.38;;;30.61;34.77
13581;BME280;6861;46.170;7.222;2023-06-19T12:51:44;95713.97;;;30.61;34.76
13581;BME280;6861;46.170;7.222;2023-06-19T12:54:12;95704.31;;;30.60;34.56
13581;BME280;6861;46.170;7.222;2023-06-19T12:56:40;95698.13;;;30.63;34.32
13581;BME280;6861;46.170;7.222;2023-06-19T12:59:08;95697.63;;;30.76;35.24
13581;BME280;6861;46.170;7.222;2023-06-19T13:01:36;95699.38;;;30.93;35.12
13581;BME280;6861;46.170;7.222;2023-06-19T13:04:06;95684.53;;;31.08;34.67
13581;BME280;6861;46.170;7.222;2023-06-19T13:06:36;95691.69;;;31.22;34.51
13581;BME280;6861;46.170;7.222;2023-06-19T13:09:04;95690.00;;;31.35;34.85
13581;BME280;6861;46.170;7.222;2023-06-19T13:11:33;95679.84;;;31.43;34.59
13581;BME280;6861;46.170;7.222;2023-06-19T13:14:01;95676.69;;;31.48;34.53
13581;BME280;6861;46.170;7.222;2023-06-19T13:16:30;95675.06;;;31.54;34.28
13581;BME280;6861;46.170;7.222;2023-06-19T13:19:13;95680.81;;;31.56;33.56
13581;BME280;6861;46.170;7.222;2023-06-19T13:21:41;95680.41;;;31.57;33.47